sensor_id;sensor_type;location;lat;lon;timestamp;pressure;altitude;pressure_sealevel;temperature;humidity
78894;BME280;68282;42.698;23.350;2023-05-14T00:00:10;95872.81;;;16.42;46.10
78894;BME280;68282;42.698;23.350;2023-05-14T00:02:36;95885.72;;;16.41;45.50
78894;BME280;68282;42.698;23.350;2023-05-14T00:05:02;95879.66;;;16.39;45.73
78894;BME280;68282;42.698;23.350;2023-05-14T00:07:27;95871.13;;;16.35;45.89
78894;BME280;68282;42.698;23.350;2023-05-14T00:09:56;95870.25;;;16.30;45.74
78894;BME280;68282;42.698;23.350;2023-05-14T00:12:21;95862.56;;;16.32;45.53
78894;BME280;68282;42.698;23.350;2023-05-14T00:14:47;95871.06;;;16.30;45.78
78894;BME280;68282;42.698;23.350;2023-05-14T00:17:12;95865.56;;;16.30;45.90
78894;BME280;68282;42.698;23.350;2023-05-14T00:19:37;95858.22;;;16.36;45.55
78894;BME280;68282;42.698;23.350;2023-05-14T00:22:06;95863.97;;;16.34;45.62
78894;BME280;68282;42.698;23.350;2023-05-14T00:24:32;95865.09;;;16.38;45.44
78894;BME280;68282;42.698;23.350;2023-05-14T00:26:58;95856.34;;;16.42;44.93
78894;BME280;68282;42.698;23.350;2023-05-14T00:29:23;95854.94;;;16.39;45.19
78894;BME280;68282;42.698;23.350;2023-05-14T00:31:48;95841.22;;;16.39;44.98
78894;BME280;68282;42.698;23.350;2023-05-14T00:34:14;95843.69;;;16.41;45.10
78894;BME280;68282;42.698;23.350;2023-05-14T00:36:39;95841.53;;;16.43;45.02
78894;BME280;68282;42.698;23.350;2023-05-14T00:39:05;95841.78;;;16.41;45.01
78894;BME280;68282;42.698;23.350;2023-05-14T00:41:30;95840.72;;;16.42;44.90
78894;BME280;68282;42.698;23.350;2023-05-14T00:43:56;95837.41;;;16.40;44.97
78894;BME280;68282;42.698;23.350;2023-05-14T00:46:21;95839.06;;;16.41;44.96
78894;BME280;68282;42.698;23.350;2023-05-14T00:48:47;95838.19;;;16.41;45.46
78894;BME280;68282;42.698;23.350;2023-05-14T00:51:12;95846.41;;;16.35;45.84
78894;BME280;68282;42.698;23.350;2023-05-14T00:53:38;95841.44;;;16.32;45.66
78894;BME280;68282;42.698;23.350;2023-05-14T00:56:04;95836.97;;;16.26;44.68
78894;BME280;68282;42.698;23.350;2023-05-14T00:58:30;95826.84;;;16.27;45.52
78894;BME280;68282;42.698;23.350;2023-05-14T01:00:55;95833.13;;;16.22;44.70
78894;BME280;68282;42.698;23.350;2023-05-14T01:03:21;95823.81;;;16.23;44.48
78894;BME280;68282;42.698;23.350;2023-05-14T01:16:18;95816.97;;;16.26;44.11
78894;BME280;68282;42.698;23.350;2023-05-14T01:18:45;95814.50;;;16.24;43.83
78894;BME280;68282;42.698;23.350;2023-05-14T01:24:00;95832.84;;;16.18;43.73
78894;BME280;68282;42.698;23.350;2023-05-14T01:26:25;95835.00;;;16.16;43.71
78894;BME280;68282;42.698;23.350;2023-05-14T01:28:51;95842.16;;;16.17;43.23
78894;BME280;68282;42.698;23.350;2023-05-14T01:31:21;95840.50;;;16.16;43.85
78894;BME280;68282;42.698;23.350;2023-05-14T01:33:53;95857.53;;;16.18;43.77
78894;BME280;68282;42.698;23.350;2023-05-14T01:36:21;95853.38;;;16.16;43.90
78894;BME280;68282;42.698;23.350;2023-05-14T01:38:48;95849.25;;;16.13;44.11
78894;BME280;68282;42.698;23.350;2023-05-14T01:41:15;95846.25;;;16.15;43.94
78894;BME280;68282;42.698;23.350;2023-05-14T01:43:43;95850.63;;;16.16;44.02
78894;BME280;68282;42.698;23.350;2023-05-14T01:46:08;95856.69;;;16.18;44.53
78894;BME280;68282;42.698;23.350;2023-05-14T01:48:34;95847.63;;;16.17;44.57
78894;BME280;68282;42.698;23.350;2023-05-14T01:50:59;95847.59;;;16.12;43.94
78894;BME280;68282;42.698;23.350;2023-05-14T01:53:26;95842.66;;;16.14;43.85
78894;BME280;68282;42.698;23.350;2023-05-14T01:55:51;95841.84;;;16.14;43.86
78894;BME280;68282;42.698;23.350;2023-05-14T01:58:17;95854.16;;;16.11;44.40
78894;BME280;68282;42.698;23.350;2023-05-14T02:00:42;95858.56;;;16.12;44.22
78894;BME280;68282;42.698;23.350;2023-05-14T02:03:07;95868.41;;;16.08;43.92
78894;BME280;68282;42.698;23.350;2023-05-14T02:05:33;95856.88;;;16.06;44.32
78894;BME280;68282;42.698;23.350;2023-05-14T02:07:58;95852.75;;;16.03;45.05
78894;BME280;68282;42.698;23.350;2023-05-14T02:10:23;95854.34;;;15.99;45.15
78894;BME280;68282;42.698;23.350;2023-05-14T02:12:49;95862.84;;;15.98;45.42
78894;BME280;68282;42.698;23.350;2023-05-14T02:15:14;95865.31;;;15.99;45.51
78894;BME280;68282;42.698;23.350;2023-05-14T02:17:40;95852.69;;;15.98;44.54
78894;BME280;68282;42.698;23.350;2023-05-14T02:20:06;95856.81;;;16.01;44.73
78894;BME280;68282;42.698;23.350;2023-05-14T02:22:31;95862.84;;;15.98;44.75
78894;BME280;68282;42.698;23.350;2023-05-14T02:24:57;95871.56;;;15.95;45.16
78894;BME280;68282;42.698;23.350;2023-05-14T02:27:22;95873.63;;;15.82;44.97
78894;BME280;68282;42.698;23.350;2023-05-14T02:29:48;95877.53;;;15.86;45.37
78894;BME280;68282;42.698;23.350;2023-05-14T02:32:14;95874.78;;;15.86;46.01
78894;BME280;68282;42.698;23.350;2023-05-14T02:34:40;95869.78;;;15.83;45.70
78894;BME280;68282;42.698;23.350;2023-05-14T02:37:05;95870.06;;;15.82;46.89
78894;BME280;68282;42.698;23.350;2023-05-14T02:39:30;95875.75;;;15.75;47.75
78894;BME280;68282;42.698;23.350;2023-05-14T02:41:56;95885.56;;;15.71;47.01
78894;BME280;68282;42.698;23.350;2023-05-14T02:44:21;95896.59;;;15.76;47.69
78894;BME280;68282;42.698;23.350;2023-05-14T02:46:47;95890.28;;;15.75;47.50
78894;BME280;68282;42.698;23.350;2023-05-14T02:49:12;95895.19;;;15.73;47.05
78894;BME280;68282;42.698;23.350;2023-05-14T02:51:37;95888.56;;;15.69;46.37
78894;BME280;68282;42.698;23.350;2023-05-14T02:54:04;95890.22;;;15.70;47.08
78894;BME280;68282;42.698;23.350;2023-05-14T02:56:29;95892.63;;;15.67;46.89
78894;BME280;68282;42.698;23.350;2023-05-14T02:58:55;95897.59;;;15.70;46.34
78894;BME280;68282;42.698;23.350;2023-05-14T03:01:20;95893.72;;;15.66;45.44
78894;BME280;68282;42.698;23.350;2023-05-14T03:03:45;95897.31;;;15.66;45.60
78894;BME280;68282;42.698;23.350;2023-05-14T03:06:11;95889.06;;;15.66;45.45
78894;BME280;68282;42.698;23.350;2023-05-14T03:08:37;95888.88;;;15.73;46.04
78894;BME280;68282;42.698;23.350;2023-05-14T03:11:02;95891.56;;;15.68;45.99
78894;BME280;68282;42.698;23.350;2023-05-14T03:13:27;95886.66;;;15.70;46.04
78894;BME280;68282;42.698;23.350;2023-05-14T03:15:53;95874.59;;;15.71;45.13
78894;BME280;68282;42.698;23.350;2023-05-14T03:18:21;95860.94;;;15.76;45.64
78894;BME280;68282;42.698;23.350;2023-05-14T03:20:47;95863.13;;;15.74;45.93
78894;BME280;68282;42.698;23.350;2023-05-14T03:23:12;95866.94;;;15.73;46.09
78894;BME280;68282;42.698;23.350;2023-05-14T03:25:42;95869.91;;;15.71;45.53
78894;BME280;68282;42.698;23.350;2023-05-14T03:28:07;95875.41;;;15.71;45.58
78894;BME280;68282;42.698;23.350;2023-05-14T03:30:33;95880.22;;;15.59;45.51
78894;BME280;68282;42.698;23.350;2023-05-14T03:32:58;95886.59;;;15.65;45.84
78894;BME280;68282;42.698;23.350;2023-05-14T03:35:24;95883.91;;;15.70;46.21
78894;BME280;68282;42.698;23.350;2023-05-14T03:37:49;95891.63;;;15.73;46.54
78894;BME280;68282;42.698;23.350;2023-05-14T03:40:16;95894.06;;;15.69;47.49
78894;BME280;68282;42.698;23.350;2023-05-14T03:42:42;95896.03;;;15.74;48.17
78894;BME280;68282;42.698;23.350;2023-05-14T03:45:08;95887.72;;;15.69;48.45
78894;BME280;68282;42.698;23.350;2023-05-14T03:47:33;95890.44;;;15.64;49.22
78894;BME280;68282;42.698;23.350;2023-05-14T03:49:59;95891.75;;;15.61;48.77
78894;BME280;68282;42.698;23.350;2023-05-14T03:52:24;95894.72;;;15.54;49.47
78894;BME280;68282;42.698;23.350;2023-05-14T03:54:50;95890.34;;;15.58;50.21
78894;BME280;68282;42.698;23.350;2023-05-14T03:57:15;95888.56;;;15.47;50.37
78894;BME280;68282;42.698;23.350;2023-05-14T03:59:40;95896.81;;;15.47;50.55
78894;BME280;68282;42.698;23.350;2023-05-14T04:02:06;95887.81;;;15.52;50.42
78894;BME280;68282;42.698;23.350;2023-05-14T04:04:31;95888.00;;;15.45;49.72
78894;BME280;68282;42.698;23.350;2023-05-14T04:06:57;95879.78;;;15.45;49.91
78894;BME280;68282;42.698;23.350;2023-05-14T04:09:22;95887.44;;;15.43;49.04
78894;BME280;68282;42.698;23.350;2023-05-14T04:11:48;95900.03;;;15.44;49.37
78894;BME280;68282;42.698;23.350;2023-05-14T04:14:13;95895.69;;;15.43;49.62
78894;BME280;68282;42.698;23.350;2023-05-14T04:16:38;95899.72;;;15.40;50.20
78894;BME280;68282;42.698;23.350;2023-05-14T04:19:04;95910.19;;;15.43;49.83
78894;BME280;68282;42.698;23.350;2023-05-14T04:21:30;95912.94;;;15.43;50.20
78894;BME280;68282;42.698;23.350;2023-05-14T04:23:55;95903.63;;;15.44;50.98
78894;BME280;68282;42.698;23.350;2023-05-14T04:26:21;95902.78;;;15.44;50.48
78894;BME280;68282;42.698;23.350;2023-05-14T04:28:47;95903.91;;;15.43;50.96
78894;BME280;68282;42.698;23.350;2023-05-14T04:31:12;95904.63;;;15.38;50.43
78894;BME280;68282;42.698;23.350;2023-05-14T04:33:37;95916.34;;;15.34;49.58
78894;BME280;68282;42.698;23.350;2023-05-14T04:36:04;95923.00;;;15.38;50.02
78894;BME280;68282;42.698;23.350;2023-05-14T04:38:29;95922.50;;;15.41;49.93
78894;BME280;68282;42.698;23.350;2023-05-14T04:40:56;95936.22;;;15.41;49.91
78894;BME280;68282;42.698;23.350;2023-05-14T04:43:22;95929.88;;;15.40;49.96
78894;BME280;68282;42.698;23.350;2023-05-14T04:45:47;95931.84;;;15.45;48.99
78894;BME280;68282;42.698;23.350;2023-05-14T04:48:13;95933.47;;;15.41;48.98
78894;BME280;68282;42.698;23.350;2023-05-14T04:50:38;95936.44;;;15.39;48.99
78894;BME280;68282;42.698;23.350;2023-05-14T04:53:04;95944.03;;;15.32;49.45
78894;BME280;68282;42.698;23.350;2023-05-14T04:55:29;95946.78;;;15.32;50.43
78894;BME280;68282;42.698;23.350;2023-05-14T04:57:55;95947.22;;;15.24;49.95
78894;BME280;68282;42.698;23.350;2023-05-14T05:00:20;95956.03;;;15.26;50.92
78894;BME280;68282;42.698;23.350;2023-05-14T05:02:46;95960.66;;;15.25;51.24
78894;BME280;68282;42.698;23.350;2023-05-14T05:05:12;95962.91;;;15.28;51.89
78894;BME280;68282;42.698;23.350;2023-05-14T05:07:37;95976.03;;;15.26;53.00
78894;BME280;68282;42.698;23.350;2023-05-14T05:10:03;95979.25;;;15.23;53.61
78894;BME280;68282;42.698;23.350;2023-05-14T05:12:28;95980.59;;;15.21;54.43
78894;BME280;68282;42.698;23.350;2023-05-14T05:14:57;95992.75;;;15.08;52.96
78894;BME280;68282;42.698;23.350;2023-05-14T05:17:23;96001.47;;;15.05;52.76
78894;BME280;68282;42.698;23.350;2023-05-14T05:19:49;96002.22;;;15.00;53.19
78894;BME280;68282;42.698;23.350;2023-05-14T05:22:15;96003.88;;;15.01;54.92
78894;BME280;68282;42.698;23.350;2023-05-14T05:24:40;96009.19;;;14.91;54.37
78894;BME280;68282;42.698;23.350;2023-05-14T05:27:05;96014.91;;;14.89;55.53
78894;BME280;68282;42.698;23.350;2023-05-14T05:29:31;96012.09;;;14.84;55.65
78894;BME280;68282;42.698;23.350;2023-05-14T05:31:56;96009.34;;;14.84;56.68
78894;BME280;68282;42.698;23.350;2023-05-14T05:34:22;96010.09;;;14.79;56.59
78894;BME280;68282;42.698;23.350;2023-05-14T05:36:47;96015.47;;;14.74;57.82
78894;BME280;68282;42.698;23.350;2023-05-14T05:39:13;96017.63;;;14.72;57.90
78894;BME280;68282;42.698;23.350;2023-05-14T05:41:38;96020.38;;;14.72;58.66
78894;BME280;68282;42.698;23.350;2023-05-14T05:44:04;96023.94;;;14.73;58.96
78894;BME280;68282;42.698;23.350;2023-05-14T05:46:30;96021.22;;;14.73;59.30
78894;BME280;68282;42.698;23.350;2023-05-14T05:48:55;96023.38;;;14.71;59.83
78894;BME280;68282;42.698;23.350;2023-05-14T05:51:21;96021.81;;;14.63;61.00
78894;BME280;68282;42.698;23.350;2023-05-14T05:53:46;96020.91;;;14.57;61.22
78894;BME280;68282;42.698;23.350;2023-05-14T05:56:11;96031.19;;;14.50;61.66
78894;BME280;68282;42.698;23.350;2023-05-14T05:58:37;96026.78;;;14.49;61.71
78894;BME280;68282;42.698;23.350;2023-05-14T06:01:02;96022.38;;;14.48;61.26
78894;BME280;68282;42.698;23.350;2023-05-14T06:03:28;96017.66;;;14.43;61.20
78894;BME280;68282;42.698;23.350;2023-05-14T06:05:53;96017.81;;;14.36;60.58
78894;BME280;68282;42.698;23.350;2023-05-14T06:08:19;96011.84;;;14.40;61.23
78894;BME280;68282;42.698;23.350;2023-05-14T06:10:44;96018.13;;;14.40;61.68
78894;BME280;68282;42.698;23.350;2023-05-14T06:13:10;96011.53;;;14.36;61.82
78894;BME280;68282;42.698;23.350;2023-05-14T06:15:36;96019.13;;;14.34;62.03
78894;BME280;68282;42.698;23.350;2023-05-14T06:18:01;96026.03;;;14.36;62.58
78894;BME280;68282;42.698;23.350;2023-05-14T06:20:26;96024.63;;;14.34;63.52
78894;BME280;68282;42.698;23.350;2023-05-14T06:22:52;96023.19;;;14.31;63.65
78894;BME280;68282;42.698;23.350;2023-05-14T06:25:17;96014.41;;;14.29;63.30
78894;BME280;68282;42.698;23.350;2023-05-14T06:27:43;96013.81;;;14.27;64.36
78894;BME280;68282;42.698;23.350;2023-05-14T06:30:09;96017.63;;;14.26;64.77
78894;BME280;68282;42.698;23.350;2023-05-14T06:32:35;96014.88;;;14.26;64.70
78894;BME280;68282;42.698;23.350;2023-05-14T06:35:01;96019.44;;;14.20;64.49
78894;BME280;68282;42.698;23.350;2023-05-14T06:37:26;96029.31;;;14.21;64.57
78894;BME280;68282;42.698;23.350;2023-05-14T06:39:52;96029.56;;;14.20;63.79
78894;BME280;68282;42.698;23.350;2023-05-14T06:42:17;96024.91;;;14.20;63.83
78894;BME280;68282;42.698;23.350;2023-05-14T06:44:43;96022.28;;;14.26;65.02
78894;BME280;68282;42.698;23.350;2023-05-14T06:47:09;96023.34;;;14.25;65.02
78894;BME280;68282;42.698;23.350;2023-05-14T06:49:35;96016.47;;;14.22;65.36
78894;BME280;68282;42.698;23.350;2023-05-14T06:52:00;96011.47;;;14.19;65.75
78894;BME280;68282;42.698;23.350;2023-05-14T06:54:26;96010.41;;;14.20;65.82
78894;BME280;68282;42.698;23.350;2023-05-14T06:56:52;95996.13;;;14.18;66.08
78894;BME280;68282;42.698;23.350;2023-05-14T06:59:17;95989.59;;;14.19;66.07
78894;BME280;68282;42.698;23.350;2023-05-14T07:01:42;95990.66;;;14.18;66.29
78894;BME280;68282;42.698;23.350;2023-05-14T07:04:08;95994.22;;;14.18;66.28
78894;BME280;68282;42.698;23.350;2023-05-14T07:06:33;96000.41;;;14.14;65.97
78894;BME280;68282;42.698;23.350;2023-05-14T07:09:00;96004.81;;;14.15;66.35
78894;BME280;68282;42.698;23.350;2023-05-14T07:11:25;96005.66;;;14.15;65.70
78894;BME280;68282;42.698;23.350;2023-05-14T07:13:51;96002.09;;;14.15;65.56
78894;BME280;68282;42.698;23.350;2023-05-14T07:16:16;96012.22;;;14.14;65.58
78894;BME280;68282;42.698;23.350;2023-05-14T07:18:41;96025.56;;;14.11;65.69
78894;BME280;68282;42.698;23.350;2023-05-14T07:21:07;96042.53;;;14.13;65.44
78894;BME280;68282;42.698;23.350;2023-05-14T07:23:33;96051.72;;;14.06;66.38
78894;BME280;68282;42.698;23.350;2023-05-14T07:26:01;96039.72;;;14.07;66.37
78894;BME280;68282;42.698;23.350;2023-05-14T07:28:27;96037.78;;;14.08;66.35
78894;BME280;68282;42.698;23.350;2023-05-14T07:30:52;96025.78;;;14.09;66.14
78894;BME280;68282;42.698;23.350;2023-05-14T07:33:18;96015.31;;;14.06;65.96
78894;BME280;68282;42.698;23.350;2023-05-14T07:35:43;96028.44;;;14.04;66.01
78894;BME280;68282;42.698;23.350;2023-05-14T07:38:09;96022.59;;;14.00;65.78
78894;BME280;68282;42.698;23.350;2023-05-14T07:40:34;96022.03;;;13.98;66.30
78894;BME280;68282;42.698;23.350;2023-05-14T07:42:59;96026.91;;;13.96;66.45
78894;BME280;68282;42.698;23.350;2023-05-14T07:45:25;96032.38;;;13.96;65.94
78894;BME280;68282;42.698;23.350;2023-05-14T07:47:50;96032.84;;;13.93;66.56
78894;BME280;68282;42.698;23.350;2023-05-14T07:50:17;96026.66;;;13.98;66.43
78894;BME280;68282;42.698;23.350;2023-05-14T07:52:43;96039.50;;;13.97;66.50
78894;BME280;68282;42.698;23.350;2023-05-14T07:55:09;96032.81;;;14.05;66.46
78894;BME280;68282;42.698;23.350;2023-05-14T07:57:34;96041.84;;;14.05;66.46
78894;BME280;68282;42.698;23.350;2023-05-14T08:00:00;96056.59;;;14.04;66.36
78894;BME280;68282;42.698;23.350;2023-05-14T08:02:25;96045.19;;;14.07;65.37
78894;BME280;68282;42.698;23.350;2023-05-14T08:04:52;96051.72;;;14.06;65.85
78894;BME280;68282;42.698;23.350;2023-05-14T08:07:17;96044.59;;;14.05;65.69
78894;BME280;68282;42.698;23.350;2023-05-14T08:09:43;96056.34;;;14.06;65.64
78894;BME280;68282;42.698;23.350;2023-05-14T08:12:08;96044.69;;;14.11;65.55
78894;BME280;68282;42.698;23.350;2023-05-14T08:14:33;96037.06;;;14.13;65.77
78894;BME280;68282;42.698;23.350;2023-05-14T08:16:59;96043.97;;;14.15;65.48
78894;BME280;68282;42.698;23.350;2023-05-14T08:19:24;96042.53;;;14.13;65.81
78894;BME280;68282;42.698;23.350;2023-05-14T08:21:51;96027.19;;;14.12;65.34
78894;BME280;68282;42.698;23.350;2023-05-14T08:24:17;96021.81;;;14.17;65.32
78894;BME280;68282;42.698;23.350;2023-05-14T08:26:43;96018.50;;;14.15;65.76
78894;BME280;68282;42.698;23.350;2023-05-14T08:29:08;96011.63;;;14.12;65.27
78894;BME280;68282;42.698;23.350;2023-05-14T08:31:33;96011.69;;;14.17;65.53
78894;BME280;68282;42.698;23.350;2023-05-14T08:33:59;96016.84;;;14.14;66.01
78894;BME280;68282;42.698;23.350;2023-05-14T08:36:24;96018.41;;;14.10;65.45
78894;BME280;68282;42.698;23.350;2023-05-14T08:38:50;96024.97;;;14.09;66.01
78894;BME280;68282;42.698;23.350;2023-05-14T08:41:15;96012.69;;;14.11;65.80
78894;BME280;68282;42.698;23.350;2023-05-14T08:43:48;96011.13;;;14.15;65.79
78894;BME280;68282;42.698;23.350;2023-05-14T08:46:16;96009.22;;;14.16;65.52
78894;BME280;68282;42.698;23.350;2023-05-14T08:48:42;95998.94;;;14.23;65.90
78894;BME280;68282;42.698;23.350;2023-05-14T08:51:11;95990.00;;;14.11;65.97
78894;BME280;68282;42.698;23.350;2023-05-14T08:53:36;96003.41;;;14.12;65.77
78894;BME280;68282;42.698;23.350;2023-05-14T08:56:05;96003.75;;;14.16;66.13
78894;BME280;68282;42.698;23.350;2023-05-14T08:58:32;95985.69;;;14.15;65.80
78894;BME280;68282;42.698;23.350;2023-05-14T09:00:58;95988.88;;;14.12;66.05
78894;BME280;68282;42.698;23.350;2023-05-14T09:03:23;95989.75;;;14.12;65.40
78894;BME280;68282;42.698;23.350;2023-05-14T09:05:49;96006.03;;;14.07;65.38
78894;BME280;68282;42.698;23.350;2023-05-14T09:08:16;96000.22;;;14.03;65.34
78894;BME280;68282;42.698;23.350;2023-05-14T09:10:41;96008.56;;;14.09;65.91
78894;BME280;68282;42.698;23.350;2023-05-14T09:13:07;95996.28;;;14.11;66.43
78894;BME280;68282;42.698;23.350;2023-05-14T09:15:35;95995.59;;;14.04;66.29
78894;BME280;68282;42.698;23.350;2023-05-14T09:18:04;95987.63;;;14.02;66.03
78894;BME280;68282;42.698;23.350;2023-05-14T09:20:30;95992.13;;;14.09;66.42
78894;BME280;68282;42.698;23.350;2023-05-14T09:22:57;95990.47;;;14.07;65.69
78894;BME280;68282;42.698;23.350;2023-05-14T09:25:30;95993.94;;;14.03;66.16
78894;BME280;68282;42.698;23.350;2023-05-14T09:27:56;95995.59;;;14.04;66.37
78894;BME280;68282;42.698;23.350;2023-05-14T09:30:23;95998.34;;;14.04;66.10
78894;BME280;68282;42.698;23.350;2023-05-14T09:32:48;95983.09;;;14.08;65.52
78894;BME280;68282;42.698;23.350;2023-05-14T09:35:17;95979.94;;;13.99;66.04
78894;BME280;68282;42.698;23.350;2023-05-14T09:37:48;95988.84;;;13.95;66.21
78894;BME280;68282;42.698;23.350;2023-05-14T09:40:14;95984.47;;;13.94;66.32
78894;BME280;68282;42.698;23.350;2023-05-14T09:42:40;95969.88;;;13.88;66.68
78894;BME280;68282;42.698;23.350;2023-05-14T09:45:07;95964.28;;;13.83;67.40
78894;BME280;68282;42.698;23.350;2023-05-14T09:47:33;95962.09;;;13.97;67.98
78894;BME280;68282;42.698;23.350;2023-05-14T09:49:58;95970.41;;;14.02;66.24
78894;BME280;68282;42.698;23.350;2023-05-14T09:52:24;95973.72;;;14.04;66.52
78894;BME280;68282;42.698;23.350;2023-05-14T09:54:53;95967.97;;;14.34;72.21
78894;BME280;68282;42.698;23.350;2023-05-14T09:57:19;95977.31;;;14.67;69.81
78894;BME280;68282;42.698;23.350;2023-05-14T09:59:45;95968.69;;;14.93;69.25
78894;BME280;68282;42.698;23.350;2023-05-14T10:02:15;95964.78;;;15.06;64.27
78894;BME280;68282;42.698;23.350;2023-05-14T10:04:46;95965.09;;;14.92;65.02
78894;BME280;68282;42.698;23.350;2023-05-14T10:07:12;95942.97;;;14.77;63.85
78894;BME280;68282;42.698;23.350;2023-05-14T10:09:39;95946.38;;;14.67;64.60
78894;BME280;68282;42.698;23.350;2023-05-14T10:12:07;95936.16;;;14.62;64.21
78894;BME280;68282;42.698;23.350;2023-05-14T10:14:39;95941.19;;;14.53;63.98
78894;BME280;68282;42.698;23.350;2023-05-14T10:17:06;95938.03;;;14.45;64.88
78894;BME280;68282;42.698;23.350;2023-05-14T10:19:35;95923.94;;;14.36;64.64
78894;BME280;68282;42.698;23.350;2023-05-14T10:22:06;95921.69;;;14.33;65.03
78894;BME280;68282;42.698;23.350;2023-05-14T10:24:33;95920.44;;;14.23;65.98
78894;BME280;68282;42.698;23.350;2023-05-14T10:26:59;95917.38;;;14.20;65.93
78894;BME280;68282;42.698;23.350;2023-05-14T10:29:35;95929.88;;;14.16;65.51
78894;BME280;68282;42.698;23.350;2023-05-14T10:32:05;95947.19;;;14.04;66.43
78894;BME280;68282;42.698;23.350;2023-05-14T10:34:35;95951.47;;;14.00;66.75
78894;BME280;68282;42.698;23.350;2023-05-14T10:37:11;95947.34;;;13.98;66.82
78894;BME280;68282;42.698;23.350;2023-05-14T10:39:50;95946.53;;;13.97;66.52
78894;BME280;68282;42.698;23.350;2023-05-14T10:44:50;95927.84;;;13.94;66.67
78894;BME280;68282;42.698;23.350;2023-05-14T10:47:16;95927.28;;;13.92;67.22
78894;BME280;68282;42.698;23.350;2023-05-14T10:49:43;95922.47;;;13.82;67.08
78894;BME280;68282;42.698;23.350;2023-05-14T10:52:10;95941.69;;;13.87;67.04
78894;BME280;68282;42.698;23.350;2023-05-14T10:54:36;95935.41;;;13.87;66.94
78894;BME280;68282;42.698;23.350;2023-05-14T10:57:02;95934.81;;;13.85;67.74
78894;BME280;68282;42.698;23.350;2023-05-14T10:59:28;95933.47;;;13.87;68.03
78894;BME280;68282;42.698;23.350;2023-05-14T11:01:56;95916.72;;;13.84;67.79
78894;BME280;68282;42.698;23.350;2023-05-14T11:04:22;95904.81;;;13.90;67.37
78894;BME280;68282;42.698;23.350;2023-05-14T11:06:50;95917.66;;;13.89;67.72
78894;BME280;68282;42.698;23.350;2023-05-14T11:09:19;95922.78;;;13.86;67.78
78894;BME280;68282;42.698;23.350;2023-05-14T11:11:46;95921.38;;;13.83;67.10
78894;BME280;68282;42.698;23.350;2023-05-14T11:14:12;95920.13;;;13.91;67.09
78894;BME280;68282;42.698;23.350;2023-05-14T11:16:38;95923.38;;;13.88;67.38
78894;BME280;68282;42.698;23.350;2023-05-14T11:19:03;95935.41;;;13.87;67.87
78894;BME280;68282;42.698;23.350;2023-05-14T11:21:29;95939.00;;;13.75;67.82
78894;BME280;68282;42.698;23.350;2023-05-14T11:23:58;95931.88;;;13.74;68.00
78894;BME280;68282;42.698;23.350;2023-05-14T11:26:26;95920.28;;;13.84;67.61
78894;BME280;68282;42.698;23.350;2023-05-14T11:28:51;95922.78;;;13.86;67.76
78894;BME280;68282;42.698;23.350;2023-05-14T11:31:17;95917.41;;;13.91;67.94
78894;BME280;68282;42.698;23.350;2023-05-14T11:33:43;95919.66;;;13.94;67.84
78894;BME280;68282;42.698;23.350;2023-05-14T11:36:11;95909.19;;;13.91;68.25
78894;BME280;68282;42.698;23.350;2023-05-14T11:38:47;95913.94;;;13.96;68.12
78894;BME280;68282;42.698;23.350;2023-05-14T11:41:14;95910.66;;;13.82;68.31
78894;BME280;68282;42.698;23.350;2023-05-14T11:43:40;95914.34;;;13.87;68.35
78894;BME280;68282;42.698;23.350;2023-05-14T11:46:06;95911.84;;;13.86;68.25
78894;BME280;68282;42.698;23.350;2023-05-14T11:48:31;95890.06;;;13.91;68.33
78894;BME280;68282;42.698;23.350;2023-05-14T11:50:57;95887.31;;;13.91;67.90
78894;BME280;68282;42.698;23.350;2023-05-14T11:53:27;95891.50;;;13.94;67.35
78894;BME280;68282;42.698;23.350;2023-05-14T11:55:54;95894.97;;;13.89;67.15
78894;BME280;68282;42.698;23.350;2023-05-14T11:58:20;95886.66;;;13.84;68.28
78894;BME280;68282;42.698;23.350;2023-05-14T12:00:49;95886.50;;;13.90;67.98
78894;BME280;68282;42.698;23.350;2023-05-14T12:03:15;95887.66;;;13.95;68.06
78894;BME280;68282;42.698;23.350;2023-05-14T12:05:59;95886.59;;;13.96;68.05
78894;BME280;68282;42.698;23.350;2023-05-14T12:08:28;95888.97;;;13.92;68.87
78894;BME280;68282;42.698;23.350;2023-05-14T12:10:53;95880.88;;;13.97;68.96
78894;BME280;68282;42.698;23.350;2023-05-14T12:13:19;95861.91;;;14.07;68.62
78894;BME280;68282;42.698;23.350;2023-05-14T12:15:54;95865.78;;;14.12;68.13
78894;BME280;68282;42.698;23.350;2023-05-14T12:18:20;95858.50;;;14.00;67.91
78894;BME280;68282;42.698;23.350;2023-05-14T12:20:49;95853.03;;;14.00;68.01
78894;BME280;68282;42.698;23.350;2023-05-14T12:23:16;95846.00;;;14.04;67.34
78894;BME280;68282;42.698;23.350;2023-05-14T12:25:52;95845.72;;;14.06;68.00
78894;BME280;68282;42.698;23.350;2023-05-14T12:28:18;95840.84;;;14.08;67.40
78894;BME280;68282;42.698;23.350;2023-05-14T12:30:47;95836.28;;;13.97;66.46
78894;BME280;68282;42.698;23.350;2023-05-14T12:33:12;95837.63;;;13.94;67.40
78894;BME280;68282;42.698;23.350;2023-05-14T12:35:38;95834.28;;;13.92;67.30
78894;BME280;68282;42.698;23.350;2023-05-14T12:38:04;95835.16;;;13.93;67.38
78894;BME280;68282;42.698;23.350;2023-05-14T12:40:30;95832.16;;;13.94;68.33
78894;BME280;68282;42.698;23.350;2023-05-14T12:42:55;95824.38;;;14.03;67.80
78894;BME280;68282;42.698;23.350;2023-05-14T12:45:21;95827.34;;;14.01;67.58
78894;BME280;68282;42.698;23.350;2023-05-14T12:47:46;95819.81;;;13.91;67.18
78894;BME280;68282;42.698;23.350;2023-05-14T12:50:12;95826.09;;;13.92;67.14
78894;BME280;68282;42.698;23.350;2023-05-14T12:52:37;95832.97;;;13.95;67.89
78894;BME280;68282;42.698;23.350;2023-05-14T12:55:03;95831.16;;;14.00;67.65
78894;BME280;68282;42.698;23.350;2023-05-14T12:57:29;95825.03;;;14.10;66.93
78894;BME280;68282;42.698;23.350;2023-05-14T12:59:55;95829.16;;;14.13;66.74